sensor_id;sensor_type;location;lat;lon;timestamp;temperature;humidity
72114;SHT31;59989;46.220;19.888;2023-03-16T00:02:54;2.64;85.00
72114;SHT31;59989;46.220;19.888;2023-03-16T00:05:57;2.64;85.32
72114;SHT31;59989;46.220;19.888;2023-03-16T00:08:59;2.70;84.62
72114;SHT31;59989;46.220;19.888;2023-03-16T00:12:02;2.70;84.69
72114;SHT31;59989;46.220;19.888;2023-03-16T00:15:05;2.65;85.07
72114;SHT31;59989;46.220;19.888;2023-03-16T00:18:08;2.64;85.37
72114;SHT31;59989;46.220;19.888;2023-03-16T00:21:12;2.62;85.68
72114;SHT31;59989;46.220;19.888;2023-03-16T00:24:15;2.61;86.12
72114;SHT31;59989;46.220;19.888;2023-03-16T00:27:20;2.64;85.75
72114;SHT31;59989;46.220;19.888;2023-03-16T00:30:25;2.58;85.61
72114;SHT31;59989;46.220;19.888;2023-03-16T00:33:29;2.57;85.05
72114;SHT31;59989;46.220;19.888;2023-03-16T00:36:31;2.58;85.38
72114;SHT31;59989;46.220;19.888;2023-03-16T00:39:35;2.50;85.48
72114;SHT31;59989;46.220;19.888;2023-03-16T00:42:38;2.49;85.94
72114;SHT31;59989;46.220;19.888;2023-03-16T00:45:41;2.46;85.89
72114;SHT31;59989;46.220;19.888;2023-03-16T00:48:46;2.39;86.41
72114;SHT31;59989;46.220;19.888;2023-03-16T00:51:49;2.36;86.30
72114;SHT31;59989;46.220;19.888;2023-03-16T00:54:54;2.33;86.40
72114;SHT31;59989;46.220;19.888;2023-03-16T00:57:58;2.30;86.82
72114;SHT31;59989;46.220;19.888;2023-03-16T01:01:07;2.23;86.88
72114;SHT31;59989;46.220;19.888;2023-03-16T01:04:10;2.19;86.92
72114;SHT31;59989;46.220;19.888;2023-03-16T01:07:13;2.19;87.25
72114;SHT31;59989;46.220;19.888;2023-03-16T01:10:15;2.18;87.11
72114;SHT31;59989;46.220;19.888;2023-03-16T01:13:19;2.18;87.25
72114;SHT31;59989;46.220;19.888;2023-03-16T01:16:22;2.12;87.04
72114;SHT31;59989;46.220;19.888;2023-03-16T01:19:25;2.12;87.14
72114;SHT31;59989;46.220;19.888;2023-03-16T01:22:28;2.16;86.83
72114;SHT31;59989;46.220;19.888;2023-03-16T01:25:30;2.18;86.96
72114;SHT31;59989;46.220;19.888;2023-03-16T01:28:33;2.16;86.83
72114;SHT31;59989;46.220;19.888;2023-03-16T01:31:36;2.16;86.77
72114;SHT31;59989;46.220;19.888;2023-03-16T01:34:40;2.19;86.28
72114;SHT31;59989;46.220;19.888;2023-03-16T01:37:43;2.20;86.28
72114;SHT31;59989;46.220;19.888;2023-03-16T01:40:53;2.22;86.41
72114;SHT31;59989;46.220;19.888;2023-03-16T01:43:55;2.28;86.34
72114;SHT31;59989;46.220;19.888;2023-03-16T01:47:00;2.30;86.42
72114;SHT31;59989;46.220;19.888;2023-03-16T01:50:04;2.29;86.59
72114;SHT31;59989;46.220;19.888;2023-03-16T01:53:11;2.30;86.40
72114;SHT31;59989;46.220;19.888;2023-03-16T01:56:17;2.36;86.49
72114;SHT31;59989;46.220;19.888;2023-03-16T01:59:27;2.37;86.73
72114;SHT31;59989;46.220;19.888;2023-03-16T02:02:30;2.43;86.23
72114;SHT31;59989;46.220;19.888;2023-03-16T02:08:46;2.46;85.49
72114;SHT31;59989;46.220;19.888;2023-03-16T02:11:49;2.50;85.55
72114;SHT31;59989;46.220;19.888;2023-03-16T02:14:52;2.47;85.70
72114;SHT31;59989;46.220;19.888;2023-03-16T02:17:55;2.39;86.00
72114;SHT31;59989;46.220;19.888;2023-03-16T02:21:20;2.37;86.06
72114;SHT31;59989;46.220;19.888;2023-03-16T02:24:27;2.33;86.12
72114;SHT31;59989;46.220;19.888;2023-03-16T02:30:51;2.23;86.53
72114;SHT31;59989;46.220;19.888;2023-03-16T02:33:55;2.22;85.96
72114;SHT31;59989;46.220;19.888;2023-03-16T02:36:58;2.22;85.81
72114;SHT31;59989;46.220;19.888;2023-03-16T02:40:17;2.16;86.20
72114;SHT31;59989;46.220;19.888;2023-03-16T02:43:25;2.12;86.29
72114;SHT31;59989;46.220;19.888;2023-03-16T02:46:39;2.03;86.59
72114;SHT31;59989;46.220;19.888;2023-03-16T02:49:45;1.98;86.44
72114;SHT31;59989;46.220;19.888;2023-03-16T02:52:48;1.98;86.28
72114;SHT31;59989;46.220;19.888;2023-03-16T02:55:50;1.91;86.66
72114;SHT31;59989;46.220;19.888;2023-03-16T02:58:53;1.82;86.27
72114;SHT31;59989;46.220;19.888;2023-03-16T03:01:59;1.77;86.27
72114;SHT31;59989;46.220;19.888;2023-03-16T03:05:02;1.72;85.63
72114;SHT31;59989;46.220;19.888;2023-03-16T03:08:05;1.68;85.81
72114;SHT31;59989;46.220;19.888;2023-03-16T03:11:08;1.64;85.85
72114;SHT31;59989;46.220;19.888;2023-03-16T03:14:11;1.60;85.18
72114;SHT31;59989;46.220;19.888;2023-03-16T03:17:15;1.54;85.16
72114;SHT31;59989;46.220;19.888;2023-03-16T03:20:18;1.53;84.63
72114;SHT31;59989;46.220;19.888;2023-03-16T03:23:21;1.48;84.32
72114;SHT31;59989;46.220;19.888;2023-03-16T03:26:23;1.47;83.39
72114;SHT31;59989;46.220;19.888;2023-03-16T03:29:27;1.43;83.33
72114;SHT31;59989;46.220;19.888;2023-03-16T03:32:36;1.34;82.32
72114;SHT31;59989;46.220;19.888;2023-03-16T03:35:39;1.32;81.99
72114;SHT31;59989;46.220;19.888;2023-03-16T03:38:43;1.29;82.07
72114;SHT31;59989;46.220;19.888;2023-03-16T03:41:47;1.23;82.59
72114;SHT31;59989;46.220;19.888;2023-03-16T03:44:51;1.19;82.78
72114;SHT31;59989;46.220;19.888;2023-03-16T03:47:54;1.16;81.82
72114;SHT31;59989;46.220;19.888;2023-03-16T03:50:58;1.12;81.94
72114;SHT31;59989;46.220;19.888;2023-03-16T03:54:15;1.10;81.98
72114;SHT31;59989;46.220;19.888;2023-03-16T03:57:30;0.99;82.59
72114;SHT31;59989;46.220;19.888;2023-03-16T04:00:33;0.97;82.24
72114;SHT31;59989;46.220;19.888;2023-03-16T04:03:37;0.95;81.43
72114;SHT31;59989;46.220;19.888;2023-03-16T04:06:41;0.92;82.22
72114;SHT31;59989;46.220;19.888;2023-03-16T04:09:43;0.96;81.09
72114;SHT31;59989;46.220;19.888;2023-03-16T04:13:01;0.96;81.17
72114;SHT31;59989;46.220;19.888;2023-03-16T04:16:08;0.93;81.02
72114;SHT31;59989;46.220;19.888;2023-03-16T04:19:16;0.96;80.35
72114;SHT31;59989;46.220;19.888;2023-03-16T04:22:19;0.92;81.30
72114;SHT31;59989;46.220;19.888;2023-03-16T04:25:26;0.88;80.73
72114;SHT31;59989;46.220;19.888;2023-03-16T04:28:29;0.92;80.23
72114;SHT31;59989;46.220;19.888;2023-03-16T04:31:34;0.85;80.79
72114;SHT31;59989;46.220;19.888;2023-03-16T04:34:37;0.84;81.16
72114;SHT31;59989;46.220;19.888;2023-03-16T04:37:43;0.84;80.47
72114;SHT31;59989;46.220;19.888;2023-03-16T04:40:45;0.76;81.37
72114;SHT31;59989;46.220;19.888;2023-03-16T04:43:52;0.76;80.60
72114;SHT31;59989;46.220;19.888;2023-03-16T04:46:57;0.75;80.55
72114;SHT31;59989;46.220;19.888;2023-03-16T04:50:08;0.72;80.84
72114;SHT31;59989;46.220;19.888;2023-03-16T04:53:11;0.66;80.62
72114;SHT31;59989;46.220;19.888;2023-03-16T04:56:15;0.65;81.12
72114;SHT31;59989;46.220;19.888;2023-03-16T04:59:22;0.71;80.13
72114;SHT31;59989;46.220;19.888;2023-03-16T05:02:34;0.81;79.87
72114;SHT31;59989;46.220;19.888;2023-03-16T05:05:37;0.79;80.25
72114;SHT31;59989;46.220;19.888;2023-03-16T05:08:41;0.75;80.67
72114;SHT31;59989;46.220;19.888;2023-03-16T05:11:44;0.71;80.57
72114;SHT31;59989;46.220;19.888;2023-03-16T05:14:48;0.72;79.92
72114;SHT31;59989;46.220;19.888;2023-03-16T05:18:11;0.74;79.61
72114;SHT31;59989;46.220;19.888;2023-03-16T05:21:14;0.81;79.11
72114;SHT31;59989;46.220;19.888;2023-03-16T05:24:36;0.76;79.30
72114;SHT31;59989;46.220;19.888;2023-03-16T05:27:39;0.79;79.30
72114;SHT31;59989;46.220;19.888;2023-03-16T05:30:44;0.82;79.54
72114;SHT31;59989;46.220;19.888;2023-03-16T05:33:52;0.81;79.81
72114;SHT31;59989;46.220;19.888;2023-03-16T05:36:56;0.86;78.67
72114;SHT31;59989;46.220;19.888;2023-03-16T05:40:00;0.85;78.78
72114;SHT31;59989;46.220;19.888;2023-03-16T05:43:03;0.89;79.16
72114;SHT31;59989;46.220;19.888;2023-03-16T05:46:10;0.95;78.31
72114;SHT31;59989;46.220;19.888;2023-03-16T05:49:13;1.05;78.22
72114;SHT31;59989;46.220;19.888;2023-03-16T05:52:17;1.10;77.85
72114;SHT31;59989;46.220;19.888;2023-03-16T05:55:19;1.15;77.87
72114;SHT31;59989;46.220;19.888;2023-03-16T05:58:29;1.26;77.51
72114;SHT31;59989;46.220;19.888;2023-03-16T06:01:38;1.30;78.17
72114;SHT31;59989;46.220;19.888;2023-03-16T06:04:41;1.34;77.05
72114;SHT31;59989;46.220;19.888;2023-03-16T06:07:44;1.43;77.96
72114;SHT31;59989;46.220;19.888;2023-03-16T06:10:48;1.51;76.86
72114;SHT31;59989;46.220;19.888;2023-03-16T06:13:53;1.57;76.38
72114;SHT31;59989;46.220;19.888;2023-03-16T06:16:59;1.68;76.57
72114;SHT31;59989;46.220;19.888;2023-03-16T06:20:04;1.77;76.50
72114;SHT31;59989;46.220;19.888;2023-03-16T06:23:13;1.89;75.49
72114;SHT31;59989;46.220;19.888;2023-03-16T06:26:16;1.98;75.40
72114;SHT31;59989;46.220;19.888;2023-03-16T06:29:20;2.08;74.53
72114;SHT31;59989;46.220;19.888;2023-03-16T06:32:23;2.19;75.47
72114;SHT31;59989;46.220;19.888;2023-03-16T06:35:26;2.29;74.44
72114;SHT31;59989;46.220;19.888;2023-03-16T06:38:48;2.37;73.50
72114;SHT31;59989;46.220;19.888;2023-03-16T06:42:01;2.49;73.62
72114;SHT31;59989;46.220;19.888;2023-03-16T06:45:06;2.60;73.56
72114;SHT31;59989;46.220;19.888;2023-03-16T06:48:21;2.68;73.27
72114;SHT31;59989;46.220;19.888;2023-03-16T06:51:31;2.81;73.49
72114;SHT31;59989;46.220;19.888;2023-03-16T06:54:38;2.91;73.18
72114;SHT31;59989;46.220;19.888;2023-03-16T06:57:40;3.04;72.93
72114;SHT31;59989;46.220;19.888;2023-03-16T07:00:43;3.22;72.82
72114;SHT31;59989;46.220;19.888;2023-03-16T07:03:46;3.29;72.01
72114;SHT31;59989;46.220;19.888;2023-03-16T07:06:58;3.50;71.97
72114;SHT31;59989;46.220;19.888;2023-03-16T07:10:02;3.76;71.58
72114;SHT31;59989;46.220;19.888;2023-03-16T07:13:04;4.01;69.93
72114;SHT31;59989;46.220;19.888;2023-03-16T07:16:08;4.09;68.23
72114;SHT31;59989;46.220;19.888;2023-03-16T07:19:11;4.29;69.10
72114;SHT31;59989;46.220;19.888;2023-03-16T07:22:13;4.41;68.31
72114;SHT31;59989;46.220;19.888;2023-03-16T07:25:16;4.55;66.90
72114;SHT31;59989;46.220;19.888;2023-03-16T07:28:24;4.70;66.40
72114;SHT31;59989;46.220;19.888;2023-03-16T07:31:28;4.90;65.34
72114;SHT31;59989;46.220;19.888;2023-03-16T07:34:53;5.04;65.08
72114;SHT31;59989;46.220;19.888;2023-03-16T07:38:13;5.23;64.18
72114;SHT31;59989;46.220;19.888;2023-03-16T07:41:34;5.28;64.03
72114;SHT31;59989;46.220;19.888;2023-03-16T07:45:07;5.56;63.76
72114;SHT31;59989;46.220;19.888;2023-03-16T07:48:27;5.86;65.15
72114;SHT31;59989;46.220;19.888;2023-03-16T07:51:47;5.87;62.87
72114;SHT31;59989;46.220;19.888;2023-03-16T07:55:13;6.16;63.09
72114;SHT31;59989;46.220;19.888;2023-03-16T07:58:34;6.45;61.94
72114;SHT31;59989;46.220;19.888;2023-03-16T08:01:54;6.51;61.00
72114;SHT31;59989;46.220;19.888;2023-03-16T08:05:15;6.64;61.44
72114;SHT31;59989;46.220;19.888;2023-03-16T08:08:39;6.62;58.07
72114;SHT31;59989;46.220;19.888;2023-03-16T08:12:08;7.00;60.48
72114;SHT31;59989;46.220;19.888;2023-03-16T08:15:28;6.92;56.87
72114;SHT31;59989;46.220;19.888;2023-03-16T08:18:57;6.89;58.65
72114;SHT31;59989;46.220;19.888;2023-03-16T08:22:17;6.92;58.02
72114;SHT31;59989;46.220;19.888;2023-03-16T08:25:38;6.96;58.96
72114;SHT31;59989;46.220;19.888;2023-03-16T08:28:59;7.01;58.29
72114;SHT31;59989;46.220;19.888;2023-03-16T08:32:22;7.16;58.55
72114;SHT31;59989;46.220;19.888;2023-03-16T08:35:43;7.19;58.57
72114;SHT31;59989;46.220;19.888;2023-03-16T08:39:04;7.27;57.10
72114;SHT31;59989;46.220;19.888;2023-03-16T08:42:25;7.52;56.51
72114;SHT31;59989;46.220;19.888;2023-03-16T08:45:46;7.65;56.97
72114;SHT31;59989;46.220;19.888;2023-03-16T08:49:19;7.82;56.99
72114;SHT31;59989;46.220;19.888;2023-03-16T08:52:45;7.64;54.92
72114;SHT31;59989;46.220;19.888;2023-03-16T08:56:12;7.85;57.36
72114;SHT31;59989;46.220;19.888;2023-03-16T08:59:33;7.68;55.39
72114;SHT31;59989;46.220;19.888;2023-03-16T09:02:53;8.02;57.40
72114;SHT31;59989;46.220;19.888;2023-03-16T09:06:15;7.85;53.93
72114;SHT31;59989;46.220;19.888;2023-03-16T09:09:35;7.85;54.85
72114;SHT31;59989;46.220;19.888;2023-03-16T09:12:56;8.05;54.95
72114;SHT31;59989;46.220;19.888;2023-03-16T09:16:16;8.30;55.39
72114;SHT31;59989;46.220;19.888;2023-03-16T09:19:36;8.29;53.64
72114;SHT31;59989;46.220;19.888;2023-03-16T09:22:56;8.58;54.56
72114;SHT31;59989;46.220;19.888;2023-03-16T09:26:17;8.67;53.48
72114;SHT31;59989;46.220;19.888;2023-03-16T09:29:37;8.96;52.01
72114;SHT31;59989;46.220;19.888;2023-03-16T09:32:57;9.05;52.25
72114;SHT31;59989;46.220;19.888;2023-03-16T09:36:18;8.34;52.33
72114;SHT31;59989;46.220;19.888;2023-03-16T09:39:39;8.82;50.77
72114;SHT31;59989;46.220;19.888;2023-03-16T09:43:41;9.46;50.78
72114;SHT31;59989;46.220;19.888;2023-03-16T09:47:03;8.84;48.58
72114;SHT31;59989;46.220;19.888;2023-03-16T09:50:28;9.09;49.25
72114;SHT31;59989;46.220;19.888;2023-03-16T09:53:51;8.91;48.01
72114;SHT31;59989;46.220;19.888;2023-03-16T09:57:30;8.68;48.93
72114;SHT31;59989;46.220;19.888;2023-03-16T10:05:08;10.05;46.28
72114;SHT31;59989;46.220;19.888;2023-03-16T10:12:29;8.41;46.51
72114;SHT31;59989;46.220;19.888;2023-03-16T10:15:51;9.85;43.70
72114;SHT31;59989;46.220;19.888;2023-03-16T10:19:30;10.01;46.04
72114;SHT31;59989;46.220;19.888;2023-03-16T10:22:53;9.88;43.42
72114;SHT31;59989;46.220;19.888;2023-03-16T10:26:24;11.15;43.58
72114;SHT31;59989;46.220;19.888;2023-03-16T10:29:47;10.60;41.97
72114;SHT31;59989;46.220;19.888;2023-03-16T10:33:21;9.40;44.75
72114;SHT31;59989;46.220;19.888;2023-03-16T10:36:44;9.73;43.98
72114;SHT31;59989;46.220;19.888;2023-03-16T10:40:07;10.96;41.30
72114;SHT31;59989;46.220;19.888;2023-03-16T10:43:28;11.14;41.69
72114;SHT31;59989;46.220;19.888;2023-03-16T10:46:56;10.74;43.53
72114;SHT31;59989;46.220;19.888;2023-03-16T10:50:23;11.21;42.83
72114;SHT31;59989;46.220;19.888;2023-03-16T10:53:44;10.94;42.76
72114;SHT31;59989;46.220;19.888;2023-03-16T11:00:45;9.74;45.02
72114;SHT31;59989;46.220;19.888;2023-03-16T11:04:12;10.80;41.79
72114;SHT31;59989;46.220;19.888;2023-03-16T11:07:34;11.00;39.73
72114;SHT31;59989;46.220;19.888;2023-03-16T11:10:57;11.79;39.80
72114;SHT31;59989;46.220;19.888;2023-03-16T11:14:20;10.83;41.69
72114;SHT31;59989;46.220;19.888;2023-03-16T11:17:48;11.36;42.99
72114;SHT31;59989;46.220;19.888;2023-03-16T11:24:49;10.16;42.17
72114;SHT31;59989;46.220;19.888;2023-03-16T11:31:56;12.81;36.92
72114;SHT31;59989;46.220;19.888;2023-03-16T11:42:36;9.82;42.71
72114;SHT31;59989;46.220;19.888;2023-03-16T11:46:27;11.63;37.78
72114;SHT31;59989;46.220;19.888;2023-03-16T11:49:59;12.07;37.66
72114;SHT31;59989;46.220;19.888;2023-03-16T11:53:35;13.16;38.55
72114;SHT31;59989;46.220;19.888;2023-03-16T11:57:09;13.40;38.45
72114;SHT31;59989;46.220;19.888;2023-03-16T12:00:48;11.39;40.54
72114;SHT31;59989;46.220;19.888;2023-03-16T12:04:26;13.00;37.47
72114;SHT31;59989;46.220;19.888;2023-03-16T12:15:51;12.75;36.89
72114;SHT31;59989;46.220;19.888;2023-03-16T12:19:23;11.32;39.81
72114;SHT31;59989;46.220;19.888;2023-03-16T12:23:09;10.48;39.58
72114;SHT31;59989;46.220;19.888;2023-03-16T12:26:31;13.06;34.78
72114;SHT31;59989;46.220;19.888;2023-03-16T12:48:29;13.02;35.58
72114;SHT31;59989;46.220;19.888;2023-03-16T12:52:02;14.55;31.93
72114;SHT31;59989;46.220;19.888;2023-03-16T12:55:25;15.74;30.34
72114;SHT31;59989;46.220;19.888;2023-03-16T12:59:00;15.47;31.34
72114;SHT31;59989;46.220;19.888;2023-03-16T13:02:28;14.74;31.31
72114;SHT31;59989;46.220;19.888;2023-03-16T13:05:54;15.14;31.31
72114;SHT31;59989;46.220;19.888;2023-03-16T13:09:23;14.19;32.03
72114;SHT31;59989;46.220;19.888;2023-03-16T13:12:47;13.85;33.08
72114;SHT31;59989;46.220;19.888;2023-03-16T13:16:09;15.21;32.40
72114;SHT31;59989;46.220;19.888;2023-03-16T13:19:44;12.00;35.59
72114;SHT31;59989;46.220;19.888;2023-03-16T13:26:38;14.02;30.40
72114;SHT31;59989;46.220;19.888;2023-03-16T13:30:01;12.49;34.15
72114;SHT31;59989;46.220;19.888;2023-03-16T13:33:24;14.77;31.94
72114;SHT31;59989;46.220;19.888;2023-03-16T13:36:46;14.95;31.37
72114;SHT31;59989;46.220;19.888;2023-03-16T13:40:21;14.40;32.20
72114;SHT31;59989;46.220;19.888;2023-03-16T13:43:42;13.54;34.51
72114;SHT31;59989;46.220;19.888;2023-03-16T13:47:04;13.28;32.80
72114;SHT31;59989;46.220;19.888;2023-03-16T13:50:24;12.69;33.93
72114;SHT31;59989;46.220;19.888;2023-03-16T13:53:45;11.29;35.44
72114;SHT31;59989;46.220;19.888;2023-03-16T13:57:10;11.07;33.89
72114;SHT31;59989;46.220;19.888;2023-03-16T14:00:34;11.83;34.62
72114;SHT31;59989;46.220;19.888;2023-03-16T14:03:59;11.83;35.53
72114;SHT31;59989;46.220;19.888;2023-03-16T14:07:24;11.08;35.43
72114;SHT31;59989;46.220;19.888;2023-03-16T14:10:45;11.03;36.20
72114;SHT31;59989;46.220;19.888;2023-03-16T14:14:14;11.67;35.27
72114;SHT31;59989;46.220;19.888;2023-03-16T14:17:34;11.31;35.16
72114;SHT31;59989;46.220;19.888;2023-03-16T14:20:55;10.53;36.69
72114;SHT31;59989;46.220;19.888;2023-03-16T14:31:19;9.95;40.18
72114;SHT31;59989;46.220;19.888;2023-03-16T14:34:39;12.01;35.20
72114;SHT31;59989;46.220;19.888;2023-03-16T14:41:38;12.83;31.72
72114;SHT31;59989;46.220;19.888;2023-03-16T14:45:00;11.52;34.57
72114;SHT31;59989;46.220;19.888;2023-03-16T14:48:21;11.27;37.19
72114;SHT31;59989;46.220;19.888;2023-03-16T14:51:41;10.15;40.28
72114;SHT31;59989;46.220;19.888;2023-03-16T14:55:11;9.37;41.15
72114;SHT31;59989;46.220;19.888;2023-03-16T14:58:31;8.92;41.46
72114;SHT31;59989;46.220;19.888;2023-03-16T15:01:55;8.72;42.80
72114;SHT31;59989;46.220;19.888;2023-03-16T15:05:23;9.02;44.06
72114;SHT31;59989;46.220;19.888;2023-03-16T15:08:45;9.40;44.02
72114;SHT31;59989;46.220;19.888;2023-03-16T15:12:14;9.44;42.55
72114;SHT31;59989;46.220;19.888;2023-03-16T15:15:34;9.73;41.69
72114;SHT31;59989;46.220;19.888;2023-03-16T15:18:54;9.67;38.94
72114;SHT31;59989;46.220;19.888;2023-03-16T15:22:18;9.73;38.70
72114;SHT31;59989;46.220;19.888;2023-03-16T15:25:42;9.50;38.56
72114;SHT31;59989;46.220;19.888;2023-03-16T15:29:05;9.25;35.62
72114;SHT31;59989;46.220;19.888;2023-03-16T15:32:25;9.13;36.72
72114;SHT31;59989;46.220;19.888;2023-03-16T15:35:47;9.05;36.82
72114;SHT31;59989;46.220;19.888;2023-03-16T15:39:23;9.08;37.40
72114;SHT31;59989;46.220;19.888;2023-03-16T15:42:44;9.04;37.78
72114;SHT31;59989;46.220;19.888;2023-03-16T15:46:03;8.99;37.38
72114;SHT31;59989;46.220;19.888;2023-03-16T15:49:23;8.95;37.47
72114;SHT31;59989;46.220;19.888;2023-03-16T15:52:46;8.84;38.27
72114;SHT31;59989;46.220;19.888;2023-03-16T15:56:13;8.74;38.44
72114;SHT31;59989;46.220;19.888;2023-03-16T15:59:34;8.67;38.10
72114;SHT31;59989;46.220;19.888;2023-03-16T16:02:56;8.61;40.39
72114;SHT31;59989;46.220;19.888;2023-03-16T16:06:17;8.47;40.36
72114;SHT31;59989;46.220;19.888;2023-03-16T16:09:37;8.33;40.71
72114;SHT31;59989;46.220;19.888;2023-03-16T16:12:57;8.23;42.28
72114;SHT31;59989;46.220;19.888;2023-03-16T16:16:18;8.12;42.82
72114;SHT31;59989;46.220;19.888;2023-03-16T16:19:38;7.99;44.30
72114;SHT31;59989;46.220;19.888;2023-03-16T16:22:58;7.79;45.22
72114;SHT31;59989;46.220;19.888;2023-03-16T16:29:44;7.38;47.57
72114;SHT31;59989;46.220;19.888;2023-03-16T16:33:22;7.23;48.77
72114;SHT31;59989;46.220;19.888;2023-03-16T16:36:43;7.09;49.13
72114;SHT31;59989;46.220;19.888;2023-03-16T16:40:03;6.92;49.48
72114;SHT31;59989;46.220;19.888;2023-03-16T16:46:49;6.68;49.70
72114;SHT31;59989;46.220;19.888;2023-03-16T16:50:14;6.49;50.78
72114;SHT31;59989;46.220;19.888;2023-03-16T16:53:34;6.37;50.79
72114;SHT31;59989;46.220;19.888;2023-03-16T16:56:56;6.21;51.23
72114;SHT31;59989;46.220;19.888;2023-03-16T17:00:22;6.10;51.71
72114;SHT31;59989;46.220;19.888;2023-03-16T17:03:43;5.90;53.08
72114;SHT31;59989;46.220;19.888;2023-03-16T17:07:05;5.65;54.58
72114;SHT31;59989;46.220;19.888;2023-03-16T17:10:26;5.36;54.02
72114;SHT31;59989;46.220;19.888;2023-03-16T17:13:46;5.17;54.27
72114;SHT31;59989;46.220;19.888;2023-03-16T17:17:11;4.98;55.87
72114;SHT31;59989;46.220;19.888;2023-03-16T17:20:31;4.79;56.10
72114;SHT31;59989;46.220;19.888;2023-03-16T17:23:53;4.65;57.60
72114;SHT31;59989;46.220;19.888;2023-03-16T17:27:13;4.50;57.71
72114;SHT31;59989;46.220;19.888;2023-03-16T17:30:36;4.38;58.37
72114;SHT31;59989;46.220;19.888;2023-03-16T17:33:56;4.38;57.80
72114;SHT31;59989;46.220;19.888;2023-03-16T17:37:18;4.80;57.51
72114;SHT31;59989;46.220;19.888;2023-03-16T17:40:39;4.98;56.50
72114;SHT31;59989;46.220;19.888;2023-03-16T17:44:03;4.98;56.07
72114;SHT31;59989;46.220;19.888;2023-03-16T17:47:26;4.93;56.93
72114;SHT31;59989;46.220;19.888;2023-03-16T17:50:46;4.79;57.95
72114;SHT31;59989;46.220;19.888;2023-03-16T17:54:07;4.70;58.77
72114;SHT31;59989;46.220;19.888;2023-03-16T17:57:30;4.42;58.48
72114;SHT31;59989;46.220;19.888;2023-03-16T18:00:52;4.21;59.57
72114;SHT31;59989;46.220;19.888;2023-03-16T18:07:36;3.87;60.08
72114;SHT31;59989;46.220;19.888;2023-03-16T18:10:59;3.74;60.70
72114;SHT31;59989;46.220;19.888;2023-03-16T18:14:37;3.57;60.65
72114;SHT31;59989;46.220;19.888;2023-03-16T18:17:59;3.47;61.44
72114;SHT31;59989;46.220;19.888;2023-03-16T18:21:22;3.46;61.03
72114;SHT31;59989;46.220;19.888;2023-03-16T18:24:44;3.39;62.03
72114;SHT31;59989;46.220;19.888;2023-03-16T18:28:07;3.23;61.84
72114;SHT31;59989;46.220;19.888;2023-03-16T18:31:28;3.12;61.94
72114;SHT31;59989;46.220;19.888;2023-03-16T18:34:51;2.95;62.26
72114;SHT31;59989;46.220;19.888;2023-03-16T18:38:16;2.80;63.58
72114;SHT31;59989;46.220;19.888;2023-03-16T18:41:38;2.65;62.89
72114;SHT31;59989;46.220;19.888;2023-03-16T18:44:59;2.62;63.54
72114;SHT31;59989;46.220;19.888;2023-03-16T18:48:26;2.51;63.14
72114;SHT31;59989;46.220;19.888;2023-03-16T18:51:50;2.47;63.00
72114;SHT31;59989;46.220;19.888;2023-03-16T18:55:19;2.36;63.09
72114;SHT31;59989;46.220;19.888;2023-03-16T18:58:40;2.25;64.73
72114;SHT31;59989;46.220;19.888;2023-03-16T19:02:01;2.18;64.01
72114;SHT31;59989;46.220;19.888;2023-03-16T19:05:29;2.01;64.46
72114;SHT31;59989;46.220;19.888;2023-03-16T19:08:52;1.97;64.78
72114;SHT31;59989;46.220;19.888;2023-03-16T19:12:15;1.92;65.18
72114;SHT31;59989;46.220;19.888;2023-03-16T19:15:35;1.85;64.56
72114;SHT31;59989;46.220;19.888;2023-03-16T19:18:56;1.79;64.86
72114;SHT31;59989;46.220;19.888;2023-03-16T19:22:17;1.77;64.10
72114;SHT31;59989;46.220;19.888;2023-03-16T19:25:40;1.64;64.85
72114;SHT31;59989;46.220;19.888;2023-03-16T19:29:02;1.67;64.65
72114;SHT31;59989;46.220;19.888;2023-03-16T19:32:22;1.64;64.36
72114;SHT31;59989;46.220;19.888;2023-03-16T19:35:43;1.65;64.69
72114;SHT31;59989;46.220;19.888;2023-03-16T19:39:04;1.63;65.12
72114;SHT31;59989;46.220;19.888;2023-03-16T19:42:28;1.60;66.65
72114;SHT31;59989;46.220;19.888;2023-03-16T19:45:50;1.64;69.04
72114;SHT31;59989;46.220;19.888;2023-03-16T19:49:22;1.65;70.75
72114;SHT31;59989;46.220;19.888;2023-03-16T19:52:42;1.67;71.67
72114;SHT31;59989;46.220;19.888;2023-03-16T19:56:03;1.72;72.10
72114;SHT31;59989;46.220;19.888;2023-03-16T19:59:31;1.71;72.06
72114;SHT31;59989;46.220;19.888;2023-03-16T20:02:53;1.61;72.04
72114;SHT31;59989;46.220;19.888;2023-03-16T20:06:20;1.51;72.44
72114;SHT31;59989;46.220;19.888;2023-03-16T20:09:41;1.53;72.05
72114;SHT31;59989;46.220;19.888;2023-03-16T20:13:01;1.54;70.92
72114;SHT31;59989;46.220;19.888;2023-03-16T20:16:29;1.42;69.94
72114;SHT31;59989;46.220;19.888;2023-03-16T20:19:50;1.30;71.19
72114;SHT31;59989;46.220;19.888;2023-03-16T20:23:23;1.09;71.69
72114;SHT31;59989;46.220;19.888;2023-03-16T20:26:44;0.92;72.97
72114;SHT31;59989;46.220;19.888;2023-03-16T20:30:16;0.75;73.73
72114;SHT31;59989;46.220;19.888;2023-03-16T20:33:37;0.69;75.82
72114;SHT31;59989;46.220;19.888;2023-03-16T20:36:58;0.84;76.52
72114;SHT31;59989;46.220;19.888;2023-03-16T20:40:19;0.97;75.72
72114;SHT31;59989;46.220;19.888;2023-03-16T20:43:41;0.97;74.94
72114;SHT31;59989;46.220;19.888;2023-03-16T20:47:01;0.91;74.42
72114;SHT31;59989;46.220;19.888;2023-03-16T20:50:26;0.79;74.23
72114;SHT31;59989;46.220;19.888;2023-03-16T20:53:48;0.75;75.64
72114;SHT31;59989;46.220;19.888;2023-03-16T20:57:14;0.76;75.48
72114;SHT31;59989;46.220;19.888;2023-03-16T21:00:37;0.75;75.64
72114;SHT31;59989;46.220;19.888;2023-03-16T21:03:57;0.71;75.35
72114;SHT31;59989;46.220;19.888;2023-03-16T21:07:19;0.71;75.38
72114;SHT31;59989;46.220;19.888;2023-03-16T21:10:39;0.79;74.99
72114;SHT31;59989;46.220;19.888;2023-03-16T21:14:02;0.86;74.07
72114;SHT31;59989;46.220;19.888;2023-03-16T21:20:48;0.61;75.70
72114;SHT31;59989;46.220;19.888;2023-03-16T21:24:08;0.66;76.01
72114;SHT31;59989;46.220;19.888;2023-03-16T21:27:30;0.66;76.78
72114;SHT31;59989;46.220;19.888;2023-03-16T21:30:53;0.60;76.11
72114;SHT31;59989;46.220;19.888;2023-03-16T21:34:34;0.51;76.45
72114;SHT31;59989;46.220;19.888;2023-03-16T21:37:55;0.38;76.90
72114;SHT31;59989;46.220;19.888;2023-03-16T21:41:15;0.28;76.90
72114;SHT31;59989;46.220;19.888;2023-03-16T21:44:36;0.20;76.26
72114;SHT31;59989;46.220;19.888;2023-03-16T21:47:56;0.11;74.90
72114;SHT31;59989;46.220;19.888;2023-03-16T21:51:22;0.18;74.36
72114;SHT31;59989;46.220;19.888;2023-03-16T21:54:43;0.44;73.30
72114;SHT31;59989;46.220;19.888;2023-03-16T21:58:03;0.58;73.22
72114;SHT31;59989;46.220;19.888;2023-03-16T22:01:27;0.58;73.73
72114;SHT31;59989;46.220;19.888;2023-03-16T22:04:49;0.54;73.66
72114;SHT31;59989;46.220;19.888;2023-03-16T22:08:18;0.47;75.09